createdAt,value
2023-04-07T00:01:36.140Z,52.26
2023-04-07T00:04:03.489Z,52.29
2023-04-07T00:06:30.947Z,52.30
2023-04-07T00:08:58.033Z,52.32
2023-04-07T00:11:24.953Z,52.31
2023-04-07T00:13:52.270Z,52.50
2023-04-07T00:16:19.347Z,52.46
2023-04-07T00:18:46.669Z,52.34
2023-04-07T00:21:13.638Z,52.44
2023-04-07T00:23:40.620Z,52.56
2023-04-07T00:26:07.634Z,52.45
2023-04-07T00:28:34.671Z,52.48
2023-04-07T00:31:01.805Z,52.55
2023-04-07T00:33:28.800Z,52.70
2023-04-07T00:35:58.277Z,52.46
2023-04-07T00:38:25.228Z,52.50
2023-04-07T00:40:58.980Z,52.55
2023-04-07T00:43:26.481Z,52.71
2023-04-07T00:45:54.722Z,52.61
2023-04-07T00:48:22.085Z,52.79
2023-04-07T00:50:49.359Z,52.77
2023-04-07T00:53:16.895Z,52.72
2023-04-07T00:55:44.005Z,52.63
2023-04-07T00:58:11.418Z,52.94
2023-04-07T01:01:05.285Z,52.93
2023-04-07T01:03:56.306Z,52.68
2023-04-07T01:06:25.183Z,52.85
2023-04-07T01:09:02.393Z,52.98
2023-04-07T01:11:37.772Z,52.95
2023-04-07T01:14:06.560Z,52.94
2023-04-07T01:16:42.002Z,52.92
2023-04-07T01:19:23.477Z,52.91
2023-04-07T01:21:53.454Z,52.86
2023-04-07T01:24:35.362Z,52.97
2023-04-07T01:27:19.858Z,52.92
2023-04-07T01:29:48.815Z,52.99
2023-04-07T01:32:18.683Z,53.07
2023-04-07T01:34:48.427Z,53.06
2023-04-07T01:37:16.834Z,52.91
2023-04-07T01:39:44.034Z,52.82
2023-04-07T01:42:11.463Z,52.89
2023-04-07T01:44:39.051Z,52.97
2023-04-07T01:47:07.075Z,52.85
2023-04-07T01:49:36.531Z,52.98
2023-04-07T01:52:04.988Z,52.96
2023-04-07T01:54:32.433Z,52.95
2023-04-07T01:56:59.433Z,53.05
2023-04-07T01:59:26.486Z,52.96
2023-04-07T02:01:53.825Z,52.98
2023-04-07T02:04:47.792Z,52.85
2023-04-07T02:07:21.534Z,53.01
2023-04-07T02:09:51.970Z,52.89
2023-04-07T02:12:19.503Z,52.98
2023-04-07T02:14:46.743Z,53.04
2023-04-07T02:17:16.830Z,53.01
2023-04-07T02:19:45.475Z,52.85
2023-04-07T02:22:13.650Z,53.27
2023-04-07T02:24:43.605Z,52.90
2023-04-07T02:27:10.690Z,52.94
2023-04-07T02:29:37.650Z,52.91
2023-04-07T02:32:05.807Z,52.83
2023-04-07T02:34:32.753Z,52.90
2023-04-07T02:36:59.724Z,52.79
2023-04-07T02:39:26.668Z,53.02
2023-04-07T02:41:53.648Z,52.86
2023-04-07T02:44:20.638Z,53.01
2023-04-07T02:46:47.682Z,52.97
2023-04-07T02:49:14.599Z,52.92
2023-04-07T02:51:41.624Z,52.92
2023-04-07T02:54:08.604Z,52.92
2023-04-07T02:56:35.691Z,52.78
2023-04-07T02:59:02.637Z,52.83
2023-04-07T03:01:29.605Z,52.92
2023-04-07T03:03:56.902Z,52.95
2023-04-07T03:06:24.253Z,52.94
2023-04-07T03:08:51.236Z,52.87
2023-04-07T03:11:18.335Z,52.91
2023-04-07T03:13:45.289Z,53.02
2023-04-07T03:16:12.357Z,52.99
2023-04-07T03:18:39.325Z,53.00
2023-04-07T03:21:06.339Z,52.86
2023-04-07T03:23:33.332Z,53.07
2023-04-07T03:26:00.352Z,53.01
2023-04-07T03:28:27.300Z,53.09
2023-04-07T03:30:54.336Z,52.96
2023-04-07T03:33:21.379Z,52.88
2023-04-07T03:35:48.340Z,53.11
2023-04-07T03:38:15.419Z,52.81
2023-04-07T03:40:42.293Z,53.07
2023-04-07T03:43:12.912Z,52.91
2023-04-07T03:45:40.148Z,52.80
2023-04-07T03:48:10.874Z,52.83
2023-04-07T03:50:38.717Z,52.84
2023-04-07T03:53:05.829Z,52.91
2023-04-07T03:55:34.485Z,52.89
2023-04-07T03:58:01.610Z,53.07
2023-04-07T04:00:28.631Z,52.75
2023-04-07T04:02:55.810Z,52.87
2023-04-07T04:05:22.817Z,53.11
2023-04-07T04:07:51.646Z,52.79
2023-04-07T04:10:18.805Z,53.18
2023-04-07T04:12:47.974Z,52.89
2023-04-07T04:15:15.889Z,53.03
2023-04-07T04:17:42.990Z,53.07
2023-04-07T04:20:10.353Z,53.00
2023-04-07T04:22:37.342Z,52.94
2023-04-07T04:25:05.271Z,53.10
2023-04-07T04:27:32.249Z,53.06
2023-04-07T04:29:59.223Z,52.28
2023-04-07T04:32:26.206Z,53.13
2023-04-07T04:34:53.177Z,53.02
2023-04-07T04:37:20.166Z,52.92
2023-04-07T04:39:47.133Z,52.96
2023-04-07T04:42:14.053Z,52.70
2023-04-07T04:44:41.178Z,52.79
2023-04-07T04:47:08.295Z,52.81
2023-04-07T04:49:35.262Z,53.01
2023-04-07T04:52:02.383Z,53.20
2023-04-07T04:54:29.726Z,51.56
2023-04-07T04:56:57.768Z,50.99
2023-04-07T04:59:24.732Z,50.72
2023-04-07T05:01:51.753Z,46.68
2023-04-07T05:04:19.047Z,45.36
2023-04-07T05:06:46.549Z,45.17
2023-04-07T05:09:13.558Z,45.43
2023-04-07T05:11:41.860Z,46.29
2023-04-07T05:14:08.778Z,48.36
2023-04-07T05:16:37.175Z,49.60
2023-04-07T05:19:04.258Z,49.70
2023-04-07T05:21:31.723Z,50.26
2023-04-07T05:23:58.787Z,50.36
2023-04-07T05:26:26.455Z,50.85
2023-04-07T05:28:53.433Z,50.55
2023-04-07T05:31:20.680Z,50.48
2023-04-07T05:33:47.766Z,50.56
2023-04-07T05:36:14.842Z,50.53
2023-04-07T05:38:42.279Z,50.66
2023-04-07T05:41:09.260Z,50.93
2023-04-07T05:43:36.243Z,51.01
2023-04-07T05:46:03.300Z,51.14
2023-04-07T05:48:30.338Z,51.11
2023-04-07T05:50:57.387Z,51.27
2023-04-07T05:53:24.388Z,51.17
2023-04-07T05:55:51.437Z,51.19
2023-04-07T05:58:18.409Z,51.20
2023-04-07T06:00:45.533Z,51.43
2023-04-07T06:03:12.606Z,51.19
2023-04-07T06:05:43.850Z,51.15
2023-04-07T06:08:11.225Z,51.27
2023-04-07T06:10:38.165Z,51.15
2023-04-07T06:13:05.234Z,51.20
2023-04-07T06:15:32.307Z,51.34
2023-04-07T06:17:59.532Z,50.58
2023-04-07T06:20:28.140Z,45.73
2023-04-07T06:22:55.652Z,44.12
2023-04-07T06:25:22.688Z,46.10
2023-04-07T06:27:49.649Z,46.38
2023-04-07T06:30:16.730Z,47.09
2023-04-07T06:32:43.821Z,47.56
2023-04-07T06:35:10.941Z,48.19
2023-04-07T06:37:39.562Z,48.45
2023-04-07T06:40:08.113Z,48.81
2023-04-07T06:42:35.027Z,48.96
2023-04-07T06:45:02.044Z,49.22
2023-04-07T06:47:29.890Z,49.31
2023-04-07T06:49:56.891Z,49.71
2023-04-07T06:52:23.896Z,50.00
2023-04-07T06:54:50.842Z,50.42
2023-04-07T06:57:17.822Z,50.20
2023-04-07T06:59:44.950Z,50.31
2023-04-07T07:02:12.129Z,50.45
2023-04-07T07:04:39.349Z,50.56
2023-04-07T07:07:06.367Z,50.69
2023-04-07T07:09:33.314Z,50.55
2023-04-07T07:12:04.018Z,50.91
2023-04-07T07:14:31.528Z,50.88
2023-04-07T07:16:58.599Z,51.04
2023-04-07T07:19:25.687Z,51.13
2023-04-07T07:21:52.842Z,51.04
2023-04-07T07:24:19.758Z,51.20
2023-04-07T07:26:46.709Z,51.27
2023-04-07T07:29:13.704Z,51.44
2023-04-07T07:31:40.768Z,51.27
2023-04-07T07:34:07.922Z,51.51
2023-04-07T07:36:34.987Z,51.45
2023-04-07T07:39:02.232Z,51.48
2023-04-07T07:41:29.268Z,51.60
2023-04-07T07:43:56.411Z,51.65
2023-04-07T07:46:26.541Z,51.56
2023-04-07T07:48:54.192Z,51.63
2023-04-07T07:51:21.492Z,51.69
2023-04-07T07:53:49.009Z,51.71
2023-04-07T07:56:16.509Z,51.80
2023-04-07T07:58:43.561Z,51.84
2023-04-07T08:01:11.145Z,51.81
2023-04-07T08:03:38.579Z,51.76
2023-04-07T08:06:06.880Z,51.75
2023-04-07T08:08:33.858Z,51.61
2023-04-07T08:11:01.080Z,51.70
2023-04-07T08:13:28.064Z,51.54
2023-04-07T08:15:55.277Z,51.20
2023-04-07T08:18:22.284Z,51.33
2023-04-07T08:20:49.466Z,51.10
2023-04-07T08:23:16.592Z,51.15
2023-04-07T08:25:43.888Z,51.21
2023-04-07T08:28:10.933Z,51.14
2023-04-07T08:30:38.483Z,50.98
2023-04-07T08:33:06.577Z,50.72
2023-04-07T08:35:33.803Z,50.90
2023-04-07T08:38:00.798Z,50.88
2023-04-07T08:40:27.792Z,50.73
2023-04-07T08:42:55.698Z,50.86
2023-04-07T08:45:23.036Z,50.64
2023-04-07T08:47:54.005Z,50.72
2023-04-07T08:50:22.325Z,50.78
2023-04-07T08:52:57.077Z,50.65
2023-04-07T08:55:24.634Z,50.67
2023-04-07T08:57:53.180Z,50.58
2023-04-07T09:00:21.139Z,50.90
2023-04-07T09:02:49.958Z,50.77
2023-04-07T09:05:17.081Z,50.82
2023-04-07T09:07:44.396Z,50.85
2023-04-07T09:10:11.957Z,50.79
2023-04-07T09:12:39.571Z,50.85
2023-04-07T09:15:08.224Z,50.87
2023-04-07T09:17:35.588Z,50.83
2023-04-07T09:20:03.428Z,50.84
2023-04-07T09:22:42.886Z,50.67
2023-04-07T09:25:23.125Z,50.93
2023-04-07T09:28:01.750Z,50.89
2023-04-07T09:30:33.132Z,50.84
2023-04-07T09:33:01.393Z,50.95
2023-04-07T09:35:28.998Z,50.72
2023-04-07T09:38:09.189Z,50.60
2023-04-07T09:40:38.120Z,50.85
2023-04-07T09:43:06.353Z,50.79
2023-04-07T09:45:36.558Z,50.79
2023-04-07T09:48:09.218Z,50.91
2023-04-07T09:50:40.270Z,50.94
2023-04-07T09:53:07.505Z,50.84
2023-04-07T09:55:40.133Z,51.01
2023-04-07T09:58:07.896Z,51.03
2023-04-07T10:00:35.962Z,51.02
2023-04-07T10:03:04.699Z,50.86
2023-04-07T10:05:32.157Z,50.82
2023-04-07T10:07:59.492Z,50.76
2023-04-07T10:10:29.106Z,50.87
2023-04-07T10:13:01.111Z,50.58
2023-04-07T10:15:28.294Z,50.81
2023-04-07T10:17:57.306Z,50.94
2023-04-07T10:20:24.988Z,50.74
2023-04-07T10:22:56.129Z,50.42
2023-04-07T10:25:25.071Z,47.50
2023-04-07T10:28:07.231Z,48.10
2023-04-07T10:30:35.527Z,49.23
2023-04-07T10:33:02.823Z,49.79
2023-04-07T10:36:06.628Z,50.15
2023-04-07T10:38:34.036Z,50.08
2023-04-07T10:41:01.264Z,50.36
2023-04-07T10:43:47.102Z,50.64
2023-04-07T10:46:14.295Z,50.55
2023-04-07T10:48:41.398Z,50.71
2023-04-07T10:51:11.094Z,50.83
2023-04-07T10:53:38.783Z,50.82
2023-04-07T10:56:06.203Z,50.53
2023-04-07T10:58:34.110Z,50.82
2023-04-07T11:01:01.449Z,50.97
2023-04-07T11:03:30.889Z,50.86
2023-04-07T11:06:24.758Z,51.32
2023-04-07T11:08:52.024Z,51.75
2023-04-07T11:11:40.267Z,48.72
2023-04-07T11:14:07.637Z,44.42
2023-04-07T11:16:39.686Z,42.99
2023-04-07T11:19:07.022Z,40.73
2023-04-07T11:21:34.176Z,41.21
2023-04-07T11:24:01.296Z,39.20
2023-04-07T11:26:28.428Z,39.82
2023-04-07T11:28:57.993Z,40.61
2023-04-07T11:31:30.336Z,44.39
2023-04-07T11:33:59.791Z,43.37
2023-04-07T11:36:29.262Z,39.99
2023-04-07T11:38:58.503Z,40.05
2023-04-07T11:41:30.974Z,39.69
2023-04-07T11:44:26.783Z,39.65
2023-04-07T11:47:00.196Z,39.04
2023-04-07T11:49:29.108Z,40.29
2023-04-07T11:52:04.488Z,42.72
2023-04-07T11:54:47.473Z,44.92
2023-04-07T11:57:15.211Z,44.90
2023-04-07T11:59:42.621Z,45.62
2023-04-07T12:02:10.267Z,45.80
2023-04-07T12:04:40.602Z,46.15
2023-04-07T12:07:12.217Z,46.60
2023-04-07T12:09:39.231Z,47.09
2023-04-07T12:12:10.907Z,46.34
2023-04-07T12:14:38.273Z,46.94
2023-04-07T12:17:05.462Z,47.10
2023-04-07T12:19:39.962Z,47.47
2023-04-07T12:22:06.931Z,47.19
2023-04-07T12:24:34.189Z,46.38
2023-04-07T12:27:01.207Z,46.35
2023-04-07T12:29:28.615Z,46.58
2023-04-07T12:31:56.772Z,46.73
2023-04-07T12:34:23.911Z,47.15
2023-04-07T12:36:51.182Z,46.75
2023-04-07T12:39:18.218Z,47.21
2023-04-07T12:41:55.149Z,47.29
2023-04-07T12:44:22.355Z,47.34
2023-04-07T12:46:49.348Z,47.38
2023-04-07T12:49:17.119Z,47.68
2023-04-07T12:51:44.070Z,47.29
2023-04-07T12:54:11.242Z,47.72
2023-04-07T12:56:38.261Z,48.04
2023-04-07T12:59:05.443Z,48.12
2023-04-07T13:01:36.190Z,48.33
2023-04-07T13:04:03.664Z,48.79
2023-04-07T13:06:31.254Z,49.05
2023-04-07T13:08:58.356Z,49.83
2023-04-07T13:11:26.074Z,49.85
2023-04-07T13:13:55.045Z,49.83
2023-04-07T13:16:24.342Z,50.60
2023-04-07T13:18:51.744Z,51.59
2023-04-07T13:23:50.918Z,51.66
2023-04-07T13:26:17.975Z,51.82
2023-04-07T13:28:46.488Z,50.82
2023-04-07T13:31:16.561Z,51.02
2023-04-07T13:33:43.840Z,50.98
2023-04-07T13:36:11.156Z,50.95
2023-04-07T13:38:38.235Z,51.33
2023-04-07T13:41:05.450Z,50.39
2023-04-07T13:43:33.006Z,50.84
2023-04-07T13:46:00.114Z,51.01
2023-04-07T13:48:27.457Z,51.19
2023-04-07T13:50:54.453Z,50.59
2023-04-07T13:53:22.163Z,50.58
2023-04-07T13:55:49.224Z,50.41
2023-04-07T13:58:17.407Z,50.55
2023-04-07T14:00:44.751Z,50.43
2023-04-07T14:03:12.077Z,50.53
2023-04-07T14:05:39.320Z,50.23
2023-04-07T14:08:06.529Z,49.91
2023-04-07T14:10:34.456Z,50.17
2023-04-07T14:13:04.317Z,50.03
2023-04-07T14:15:32.134Z,49.80
2023-04-07T14:18:00.356Z,49.99
2023-04-07T14:20:27.499Z,50.38
2023-04-07T14:22:55.204Z,50.33
2023-04-07T14:25:22.940Z,49.28
2023-04-07T14:27:50.004Z,49.77
2023-04-07T14:30:17.091Z,50.03
2023-04-07T14:32:44.366Z,49.75
2023-04-07T14:35:11.599Z,49.87
2023-04-07T14:37:38.936Z,50.22
2023-04-07T14:40:07.738Z,49.61
2023-04-07T14:42:36.111Z,49.71
2023-04-07T14:45:03.256Z,49.48
2023-04-07T14:47:30.583Z,49.33
2023-04-07T14:49:57.768Z,47.92
2023-04-07T14:52:25.219Z,49.46
2023-04-07T14:54:52.317Z,50.70
2023-04-07T14:57:19.516Z,50.82
2023-04-07T14:59:48.109Z,50.71
2023-04-07T15:02:15.321Z,50.76
2023-04-07T15:04:42.607Z,50.75
2023-04-07T15:07:09.983Z,50.75
2023-04-07T15:09:37.429Z,50.82
2023-04-07T15:12:05.539Z,50.87
2023-04-07T15:14:32.752Z,50.97
2023-04-07T15:16:59.862Z,51.18
2023-04-07T15:19:26.940Z,51.12
2023-04-07T15:21:54.143Z,51.04
2023-04-07T15:24:22.563Z,51.29
2023-04-07T15:26:50.375Z,51.20
2023-04-07T15:29:17.589Z,51.32
2023-04-07T15:31:44.915Z,51.27
2023-04-07T15:34:13.179Z,49.67
2023-04-07T15:36:40.730Z,48.17
2023-04-07T15:39:07.851Z,47.77
2023-04-07T15:41:34.868Z,47.58
2023-04-07T15:44:03.271Z,47.92
2023-04-07T15:46:32.473Z,48.38
2023-04-07T15:49:00.438Z,48.82
2023-04-07T15:51:30.105Z,49.40
2023-04-07T15:53:57.128Z,49.41
2023-04-07T15:56:25.094Z,49.72
2023-04-07T15:58:52.520Z,49.72
2023-04-07T16:01:19.918Z,49.90
2023-04-07T16:03:48.416Z,49.97
2023-04-07T16:06:15.827Z,50.10
2023-04-07T16:08:42.859Z,49.81
2023-04-07T16:11:09.870Z,50.01
2023-04-07T16:13:36.987Z,49.94
2023-04-07T16:16:04.237Z,50.05
2023-04-07T16:18:31.244Z,50.08
2023-04-07T16:21:03.658Z,50.44
2023-04-07T16:23:31.514Z,48.89
2023-04-07T16:25:58.505Z,47.69
2023-04-07T16:28:25.938Z,48.14
2023-04-07T16:30:53.039Z,48.96
2023-04-07T16:33:20.028Z,49.58
2023-04-07T16:35:47.248Z,50.10
2023-04-07T16:38:14.654Z,50.15
2023-04-07T16:40:47.896Z,50.16
2023-04-07T16:43:20.580Z,50.44
2023-04-07T16:45:51.776Z,50.35
2023-04-07T16:48:19.116Z,50.60
2023-04-07T16:50:48.061Z,50.46
2023-04-07T16:53:18.901Z,50.58
2023-04-07T16:55:46.486Z,50.76
2023-04-07T16:58:13.658Z,50.97
2023-04-07T17:00:40.793Z,51.02
2023-04-07T17:03:08.015Z,51.28
2023-04-07T17:05:35.186Z,51.28
2023-04-07T17:08:02.437Z,49.81
2023-04-07T17:10:29.567Z,49.21
2023-04-07T17:12:57.011Z,49.92
2023-04-07T17:15:27.071Z,50.29
2023-04-07T17:17:54.275Z,48.65
2023-04-07T17:20:23.040Z,48.38
2023-04-07T17:22:50.100Z,47.74
2023-04-07T17:25:18.981Z,48.62
2023-04-07T17:27:48.378Z,49.31
2023-04-07T17:30:15.695Z,48.69
2023-04-07T17:32:42.783Z,48.98
2023-04-07T17:35:09.994Z,49.09
2023-04-07T17:37:38.941Z,49.23
2023-04-07T17:40:06.928Z,49.60
2023-04-07T17:42:33.924Z,49.87
2023-04-07T17:45:02.200Z,50.02
2023-04-07T17:47:29.679Z,50.09
2023-04-07T17:49:56.790Z,50.07
2023-04-07T17:52:23.933Z,50.26
2023-04-07T17:54:51.354Z,50.42
2023-04-07T17:57:19.613Z,50.56
2023-04-07T17:59:48.355Z,50.85
2023-04-07T18:02:15.442Z,51.37
2023-04-07T18:04:42.722Z,51.47
2023-04-07T18:07:13.035Z,51.25
2023-04-07T18:09:43.313Z,51.36
2023-04-07T18:12:10.818Z,51.06
2023-04-07T18:14:40.698Z,50.90
2023-04-07T18:17:07.799Z,50.92
2023-04-07T18:19:35.278Z,50.98
2023-04-07T18:22:02.439Z,50.85
2023-04-07T18:24:30.046Z,50.77
2023-04-07T18:26:57.666Z,50.38
2023-04-07T18:29:25.266Z,50.44
2023-04-07T18:31:52.493Z,50.24
2023-04-07T18:34:19.681Z,50.27
2023-04-07T18:36:48.107Z,49.99
2023-04-07T18:39:17.079Z,50.05
2023-04-07T18:41:45.900Z,49.30
2023-04-07T18:44:13.739Z,49.35
2023-04-07T18:46:44.543Z,50.22
2023-04-07T18:49:11.785Z,50.18
2023-04-07T18:51:39.411Z,49.52
2023-04-07T18:54:06.865Z,49.96
2023-04-07T18:56:34.109Z,49.84
2023-04-07T18:59:01.738Z,49.61
2023-04-07T19:01:29.105Z,49.55
2023-04-07T19:03:58.061Z,49.43
2023-04-07T19:06:25.341Z,49.36
2023-04-07T19:08:52.807Z,49.33
2023-04-07T19:11:20.286Z,49.37
2023-04-07T19:13:48.762Z,49.40
2023-04-07T19:16:16.255Z,49.25
2023-04-07T19:18:44.685Z,49.42
2023-04-07T19:21:13.884Z,49.65
2023-04-07T19:23:43.877Z,49.36
2023-04-07T19:26:12.301Z,49.72
2023-04-07T19:28:41.762Z,49.55
2023-04-07T19:31:09.850Z,49.94
2023-04-07T19:33:38.272Z,49.99
2023-04-07T19:36:06.114Z,50.59
2023-04-07T19:38:33.341Z,51.64
2023-04-07T19:41:00.479Z,51.58
2023-04-07T19:43:27.669Z,53.61
2023-04-07T19:45:56.503Z,52.54
2023-04-07T19:48:23.896Z,52.32
2023-04-07T19:50:52.938Z,53.67
2023-04-07T19:53:20.409Z,52.79
2023-04-07T19:55:49.734Z,53.33
2023-04-07T19:58:19.197Z,52.99
2023-04-07T20:00:50.177Z,52.82
2023-04-07T20:03:20.190Z,52.62
2023-04-07T20:05:48.580Z,53.11
2023-04-07T20:08:16.101Z,53.23
2023-04-07T20:10:43.459Z,53.03
2023-04-07T20:13:13.781Z,52.90
2023-04-07T20:15:41.607Z,52.64
2023-04-07T20:18:09.503Z,52.08
2023-04-07T20:20:37.345Z,52.26
2023-04-07T20:23:05.002Z,52.07
2023-04-07T20:25:34.263Z,52.25
2023-04-07T20:28:01.682Z,52.75
2023-04-07T20:30:28.974Z,52.13
2023-04-07T20:32:56.406Z,52.42
2023-04-07T20:35:24.723Z,52.71
2023-04-07T20:37:51.947Z,52.17
2023-04-07T20:40:21.049Z,52.13
2023-04-07T20:42:48.759Z,51.98
2023-04-07T20:45:16.489Z,52.33
2023-04-07T20:47:44.074Z,52.33
2023-04-07T20:50:11.787Z,52.25
2023-04-07T20:52:41.735Z,51.93
2023-04-07T20:55:10.072Z,51.21
2023-04-07T20:57:38.444Z,51.86
2023-04-07T21:00:07.036Z,52.38
2023-04-07T21:02:35.578Z,52.13
2023-04-07T21:05:04.376Z,51.85
2023-04-07T21:07:32.015Z,52.37
2023-04-07T21:09:59.352Z,51.92
2023-04-07T21:12:26.957Z,52.05
2023-04-07T21:14:54.074Z,51.69
2023-04-07T21:17:21.256Z,51.86
2023-04-07T21:19:48.426Z,51.78
2023-04-07T21:22:15.737Z,51.94
2023-04-07T21:24:42.912Z,51.72
2023-04-07T21:27:12.267Z,51.85
2023-04-07T21:29:42.821Z,51.52
2023-04-07T21:32:10.921Z,51.87
2023-04-07T21:34:38.136Z,52.00
2023-04-07T21:37:05.241Z,51.66
2023-04-07T21:39:37.034Z,51.03
2023-04-07T21:42:04.135Z,50.82
2023-04-07T21:44:31.922Z,50.44
2023-04-07T21:46:59.349Z,51.22
2023-04-07T21:49:26.483Z,51.49
2023-04-07T21:51:54.098Z,51.58
2023-04-07T21:54:21.271Z,51.35
2023-04-07T21:56:49.515Z,51.33
2023-04-07T21:59:17.934Z,51.47
2023-04-07T22:01:47.429Z,51.58
2023-04-07T22:04:14.978Z,51.53
2023-04-07T22:06:42.426Z,51.43
2023-04-07T22:09:10.701Z,51.34
2023-04-07T22:11:38.106Z,51.24
2023-04-07T22:14:05.497Z,51.24
2023-04-07T22:16:32.682Z,51.49
2023-04-07T22:19:00.038Z,51.22
2023-04-07T22:21:27.784Z,51.10
2023-04-07T22:23:55.585Z,51.35
2023-04-07T22:26:22.755Z,51.31
2023-04-07T22:28:49.993Z,51.19
2023-04-07T22:31:17.133Z,51.15
2023-04-07T22:33:44.371Z,51.14
2023-04-07T22:36:11.823Z,51.10
2023-04-07T22:38:38.877Z,51.25
2023-04-07T22:41:05.987Z,51.01
2023-04-07T22:43:33.268Z,50.91
2023-04-07T22:46:00.403Z,51.10
2023-04-07T22:48:28.612Z,51.01
2023-04-07T22:50:56.082Z,51.07
2023-04-07T22:53:23.183Z,50.90
2023-04-07T22:55:51.206Z,50.75
2023-04-07T22:58:18.353Z,50.94
2023-04-07T23:00:46.381Z,51.04
2023-04-07T23:03:15.401Z,51.25
2023-04-07T23:05:42.650Z,51.27
2023-04-07T23:08:09.679Z,50.75
2023-04-07T23:10:36.857Z,51.17
2023-04-07T23:13:03.890Z,51.10
2023-04-07T23:15:31.066Z,50.84
2023-04-07T23:17:58.289Z,50.85
2023-04-07T23:20:25.568Z,51.02
2023-04-07T23:22:52.679Z,50.86
2023-04-07T23:25:20.754Z,50.94
2023-04-07T23:27:47.761Z,50.90
2023-04-07T23:30:14.840Z,50.98
2023-04-07T23:32:42.304Z,50.93
2023-04-07T23:35:09.975Z,50.99
2023-04-07T23:37:37.246Z,50.77
2023-04-07T23:40:06.030Z,51.12
2023-04-07T23:42:33.040Z,50.92
2023-04-07T23:45:00.047Z,50.71
2023-04-07T23:47:27.444Z,50.99
2023-04-07T23:49:54.859Z,51.10
2023-04-07T23:52:22.446Z,50.94
2023-04-07T23:54:49.442Z,51.08
2023-04-07T23:57:16.549Z,51.03
2023-04-07T23:59:43.534Z,51.04
